Time;durP1;ratioP1;P1;durP2;ratioP2;P2;SDS_P1;SDS_P2;PMS_P1;PMS_P2;Temp;Humidity;BMP_temperature;BMP_pressure;BME280_temperature;BME280_humidity;BME280_pressure;Samples;Min_cycle;Max_cycle;Signal;HPM_P1;HPM_P2
2021/03/03 00:00:18;;;;;;;84.75;44.93;;;;;;;2.94;89.30;101770.97;1653948;85;27640;-66
2021/03/03 00:02:44;;;;;;;83.67;44.73;;;;;;;2.97;89.05;101768.23;1654856;85;22307;-66
2021/03/03 00:05:11;;;;;;;91.28;50.70;;;;;;;3.03;89.08;101786.20;1655465;85;21832;-67
2021/03/03 00:07:37;;;;;;;98.07;47.98;;;;;;;2.96;89.02;101782.18;1654452;85;21228;-66
2021/03/03 00:10:04;;;;;;;96.17;50.57;;;;;;;2.97;88.96;101790.41;1654194;85;22817;-66
2021/03/03 00:12:30;;;;;;;97.78;51.77;;;;;;;2.86;89.28;101786.48;1654177;85;21180;-66
2021/03/03 00:14:56;;;;;;;100.53;51.88;;;;;;;2.84;89.05;101792.23;1654106;85;26782;-66
2021/03/03 00:17:21;;;;;;;91.10;50.07;;;;;;;2.82;89.10;101790.13;1653559;85;21473;-66
2021/03/03 00:19:47;;;;;;;100.90;55.77;;;;;;;2.84;88.92;101790.94;1650958;85;25730;-67
2021/03/03 00:22:13;;;;;;;99.20;50.43;;;;;;;2.69;89.42;101786.37;1650470;85;21892;-67
2021/03/03 00:24:39;;;;;;;98.75;53.15;;;;;;;2.83;89.21;101787.09;1652891;85;28405;-66
2021/03/03 00:27:05;;;;;;;108.37;55.20;;;;;;;2.87;88.68;101775.15;1652936;85;26769;-66
2021/03/03 00:29:30;;;;;;;114.00;57.17;;;;;;;2.83;88.69;101776.19;1653437;85;21400;-65
2021/03/03 00:31:56;;;;;;;102.30;59.77;;;;;;;2.75;89.05;101784.80;1654484;85;23595;-65
2021/03/03 00:34:22;;;;;;;116.17;56.73;;;;;;;2.55;89.45;101761.30;1652158;84;22838;-66
2021/03/03 00:36:48;;;;;;;118.42;59.83;;;;;;;2.68;89.59;101779.44;1656419;84;26878;-65
2021/03/03 00:39:13;;;;;;;108.15;54.73;;;;;;;2.49;90.46;101780.21;1653809;85;25670;-65
2021/03/03 00:41:39;;;;;;;118.02;55.98;;;;;;;2.63;90.14;101776.19;1652842;85;22735;-66
2021/03/03 00:44:05;;;;;;;122.13;59.30;;;;;;;2.39;91.14;101774.97;1650196;85;21658;-65
2021/03/03 00:46:31;;;;;;;117.25;59.15;;;;;;;2.36;91.30;101770.35;1656054;85;21639;-65
2021/03/03 00:48:57;;;;;;;116.53;58.05;;;;;;;2.39;91.05;101767.15;1653382;84;29430;-66
2021/03/03 00:51:22;;;;;;;110.48;54.05;;;;;;;2.30;91.22;101767.09;1654113;84;27153;-66
2021/03/03 00:53:48;;;;;;;108.37;54.17;;;;;;;2.31;91.34;101763.55;1652539;85;21313;-65
2021/03/03 00:56:14;;;;;;;116.87;56.27;;;;;;;2.27;91.28;101757.22;1651790;85;27487;-66
2021/03/03 00:58:39;;;;;;;111.80;52.83;;;;;;;2.22;91.75;101763.96;1656210;85;21049;-66
2021/03/03 01:01:05;;;;;;;102.95;51.28;;;;;;;2.21;91.91;101771.84;1656586;85;28786;-65
2021/03/03 01:03:31;;;;;;;98.22;50.88;;;;;;;2.22;91.86;101768.30;1623343;85;21244;-65
2021/03/03 01:05:57;;;;;;;110.20;52.90;;;;;;;2.17;91.82;101767.66;1652667;85;21614;-65
2021/03/03 01:08:23;;;;;;;109.27;53.57;;;;;;;2.11;92.10;101763.09;1639080;85;22616;-67
2021/03/03 01:10:48;;;;;;;106.33;51.60;;;;;;;2.23;91.81;101763.50;1629504;87;20986;-66
2021/03/03 01:13:14;;;;;;;100.45;50.80;;;;;;;2.34;91.54;101759.98;1624166;87;27417;-66
2021/03/03 01:15:40;;;;;;;99.13;49.70;;;;;;;2.46;91.11;101754.27;1630171;87;26194;-66
2021/03/03 01:18:06;;;;;;;103.77;50.10;;;;;;;2.51;90.72;101757.52;1629539;87;21709;-66
2021/03/03 01:20:32;;;;;;;110.95;53.48;;;;;;;2.47;90.50;101752.50;1624209;87;21620;-67
2021/03/03 01:22:58;;;;;;;113.27;54.33;;;;;;;2.27;91.75;101748.10;1618691;87;20981;-66
2021/03/03 01:25:25;;;;;;;119.75;56.68;;;;;;;2.26;92.36;101749.03;1628108;86;21271;-66
2021/03/03 01:27:53;;;;;;;124.78;57.93;;;;;;;2.23;92.56;101745.25;1628707;86;21252;-66
2021/03/03 01:30:19;;;;;;;122.70;57.40;;;;;;;2.25;92.35;101742.11;1626845;87;21673;-66
2021/03/03 01:32:45;;;;;;;121.02;57.10;;;;;;;2.20;92.93;101742.30;1629949;87;21275;-66
2021/03/03 01:35:13;;;;;;;122.13;55.60;;;;;;;2.10;93.01;101743.14;1628274;87;21053;-66
2021/03/03 01:37:39;;;;;;;126.92;58.92;;;;;;;2.21;92.82;101738.80;1620253;87;21239;-67
2021/03/03 01:40:06;;;;;;;128.10;60.63;;;;;;;2.23;92.75;101740.04;1621726;87;27647;-66
2021/03/03 01:42:31;;;;;;;132.35;57.13;;;;;;;2.23;93.04;101736.13;1626246;87;21177;-66
2021/03/03 01:44:57;;;;;;;125.03;57.70;;;;;;;2.14;93.56;101741.25;1627095;86;21687;-66
2021/03/03 01:47:23;;;;;;;138.83;62.13;;;;;;;2.19;93.43;101734.55;1634094;87;20985;-66
2021/03/03 01:49:49;;;;;;;131.45;59.55;;;;;;;2.14;93.37;101739.52;1623543;86;28246;-66
2021/03/03 01:52:15;;;;;;;119.17;56.47;;;;;;;2.21;93.21;101737.96;1626069;87;27096;-66
2021/03/03 01:54:40;;;;;;;132.83;60.83;;;;;;;2.12;93.36;101733.50;1624978;87;21245;-66
2021/03/03 01:57:06;;;;;;;128.73;57.90;;;;;;;2.14;93.40;101734.30;1628220;87;23554;-66
2021/03/03 01:59:32;;;;;;;117.97;54.73;;;;;;;2.15;93.36;101733.38;1623804;86;21073;-66
2021/03/03 02:01:58;;;;;;;137.62;62.35;;;;;;;2.17;93.34;101731.16;1628250;87;28387;-66
2021/03/03 02:04:23;;;;;;;128.10;57.53;;;;;;;1.97;94.05;101721.08;1627935;86;27446;-66
2021/03/03 02:07:00;;;;;;;118.80;54.93;;;;;;;1.93;94.23;101715.63;1626236;87;22011;-66
2021/03/03 02:09:41;;;;;;;120.72;51.65;;;;;;;1.98;94.46;101721.02;1624100;85;25748;-66
2021/03/03 02:12:24;;;;;;;114.08;52.50;;;;;;;1.85;94.21;101711.16;1624710;87;21762;-66
2021/03/03 02:14:54;;;;;;;113.03;51.85;;;;;;;1.91;94.70;101718.72;1625297;87;21239;-65
2021/03/03 02:17:20;;;;;;;116.08;52.38;;;;;;;2.09;93.93;101721.05;1622949;87;21256;-65
2021/03/03 02:19:45;;;;;;;120.00;56.05;;;;;;;2.10;93.33;101719.69;1578079;87;21906;-65
2021/03/03 02:22:39;;;;;;;122.87;57.13;;;;;;;2.01;93.38;101721.36;1625903;87;21538;-65
2021/03/03 02:25:25;;;;;;;114.30;51.95;;;;;;;1.88;94.07;101714.94;1623040;86;21625;-65
2021/03/03 02:27:51;;;;;;;107.85;49.77;;;;;;;1.90;94.10;101713.14;1626708;86;21247;-65
2021/03/03 02:30:18;;;;;;;118.50;54.93;;;;;;;1.64;94.94;101716.31;1625984;86;24284;-65
2021/03/03 02:32:43;;;;;;;103.62;46.92;;;;;;;1.53;95.68;101718.48;1628547;87;21389;-65
2021/03/03 02:35:10;;;;;;;108.40;50.33;;;;;;;1.70;95.57;101716.07;1623304;87;21056;-65
2021/03/03 02:37:37;;;;;;;104.47;46.98;;;;;;;1.77;95.26;101713.62;1628974;87;21227;-65
2021/03/03 02:40:07;;;;;;;104.97;48.20;;;;;;;1.91;94.75;101712.21;1622916;87;21796;-65
2021/03/03 02:42:35;;;;;;;111.12;51.50;;;;;;;1.96;94.33;101718.11;1624571;87;21227;-66
2021/03/03 02:45:05;;;;;;;103.45;49.35;;;;;;;1.97;94.10;101714.14;1626474;87;21429;-65
2021/03/03 02:47:31;;;;;;;95.22;42.80;;;;;;;1.91;94.33;101712.21;1618128;87;21231;-66
2021/03/03 02:49:57;;;;;;;102.80;49.07;;;;;;;1.86;94.49;101708.48;1630654;86;21449;-65
2021/03/03 02:52:23;;;;;;;103.27;50.03;;;;;;;1.89;94.48;101710.13;1628715;86;21165;-65
2021/03/03 02:54:48;;;;;;;103.60;47.23;;;;;;;1.91;94.42;101704.39;1621887;87;26638;-66
2021/03/03 02:57:14;;;;;;;105.23;49.43;;;;;;;1.75;94.52;101707.61;1619756;87;22339;-66
2021/03/03 02:59:51;;;;;;;102.03;47.53;;;;;;;1.73;95.00;101713.34;1624070;87;21120;-65
2021/03/03 03:02:17;;;;;;;92.00;42.08;;;;;;;1.83;94.87;101712.52;1628063;87;21227;-65
2021/03/03 03:04:44;;;;;;;99.47;46.93;;;;;;;1.69;94.84;101714.36;1621529;87;23959;-65
2021/03/03 03:07:14;;;;;;;87.85;40.40;;;;;;;1.60;95.10;101706.48;1627493;86;21238;-66
2021/03/03 03:09:41;;;;;;;83.52;40.23;;;;;;;1.46;95.54;101707.91;1605107;86;21680;-66
2021/03/03 03:12:07;;;;;;;87.95;40.85;;;;;;;1.42;95.93;101713.23;1571356;86;21246;-65
2021/03/03 03:14:33;;;;;;;94.07;41.60;;;;;;;1.43;96.11;101716.23;1630957;86;21190;-65
2021/03/03 03:16:59;;;;;;;90.03;42.40;;;;;;;1.51;96.04;101716.38;1622200;86;26722;-65
2021/03/03 03:19:29;;;;;;;84.77;40.97;;;;;;;1.59;95.71;101711.28;1623935;86;23278;-65
2021/03/03 03:21:55;;;;;;;97.10;43.60;;;;;;;1.71;95.44;101711.27;1628929;86;21250;-65
2021/03/03 03:24:21;;;;;;;90.83;43.65;;;;;;;1.82;95.12;101709.97;1617851;86;21268;-66
2021/03/03 03:26:50;;;;;;;94.03;42.83;;;;;;;1.92;94.80;101716.06;1622108;86;21263;-66
2021/03/03 03:29:16;;;;;;;88.22;40.73;;;;;;;1.97;94.04;101708.92;1630177;86;21297;-66
2021/03/03 03:31:43;;;;;;;91.95;42.48;;;;;;;2.08;93.75;101708.92;1624396;86;21640;-66
2021/03/03 03:34:10;;;;;;;89.65;41.98;;;;;;;2.12;93.17;101708.73;1622988;86;21372;-66
2021/03/03 03:36:37;;;;;;;85.73;38.20;;;;;;;2.24;92.84;101709.16;1619614;86;21238;-66
2021/03/03 03:39:07;;;;;;;86.10;39.67;;;;;;;2.28;92.42;101705.03;1627709;86;21467;-65
2021/03/03 03:41:33;;;;;;;87.45;43.17;;;;;;;2.29;92.20;101694.17;1622676;86;21489;-66
2021/03/03 03:43:58;;;;;;;88.30;43.83;;;;;;;2.37;92.05;101708.19;1630214;86;27210;-66
2021/03/03 03:46:24;;;;;;;88.80;42.50;;;;;;;2.37;91.74;101702.50;1619717;86;21611;-65
2021/03/03 03:48:50;;;;;;;84.43;41.83;;;;;;;2.41;91.69;101704.08;1623306;86;21621;-65
2021/03/03 03:51:16;;;;;;;85.70;42.37;;;;;;;2.34;91.23;101699.56;1623114;86;21568;-65
2021/03/03 03:53:42;;;;;;;82.53;39.73;;;;;;;2.35;91.21;101693.91;1620633;86;27146;-65
2021/03/03 03:56:07;;;;;;;82.73;41.87;;;;;;;2.36;91.33;101696.89;1626171;86;27127;-65
2021/03/03 03:58:34;;;;;;;83.70;41.28;;;;;;;2.31;91.33;101692.34;1629324;86;21407;-65
2021/03/03 04:00:59;;;;;;;87.37;41.43;;;;;;;2.35;91.35;101691.30;1625344;86;23539;-66
2021/03/03 04:03:25;;;;;;;93.37;44.27;;;;;;;2.34;91.35;101696.95;1619135;86;21624;-65
2021/03/03 04:05:51;;;;;;;103.85;46.10;;;;;;;2.39;91.52;101698.06;1624161;86;27500;-65
2021/03/03 04:08:17;;;;;;;93.10;43.27;;;;;;;2.33;91.65;101697.02;1629717;85;25735;-65
2021/03/03 04:10:43;;;;;;;88.47;44.48;;;;;;;2.26;91.73;101699.52;1647468;85;21814;-65
2021/03/03 04:13:08;;;;;;;90.83;42.77;;;;;;;2.14;91.60;101697.81;1646435;85;21598;-66
2021/03/03 04:15:35;;;;;;;80.37;40.10;;;;;;;1.99;91.53;101693.23;1644265;85;21048;-65
2021/03/03 04:18:00;;;;;;;82.78;39.65;;;;;;;2.05;91.87;101691.68;1647024;85;21276;-66
2021/03/03 04:20:26;;;;;;;77.30;38.77;;;;;;;2.20;91.64;101692.78;1647976;85;24269;-65
2021/03/03 04:22:52;;;;;;;82.30;40.40;;;;;;;2.25;91.30;101690.85;1644007;85;22160;-66
2021/03/03 04:25:18;;;;;;;82.97;39.07;;;;;;;2.25;90.92;101690.85;1645518;85;22540;-65
2021/03/03 04:27:44;;;;;;;88.47;42.33;;;;;;;2.36;90.78;101688.23;1646266;85;21182;-65
2021/03/03 04:30:14;;;;;;;97.10;43.85;;;;;;;2.35;90.55;101686.09;1641577;85;26701;-65
2021/03/03 04:32:39;;;;;;;87.55;42.08;;;;;;;2.38;90.46;101683.36;1644519;85;21209;-66
2021/03/03 04:35:06;;;;;;;95.17;44.43;;;;;;;2.36;90.83;101685.16;1644895;84;21467;-65
2021/03/03 04:37:33;;;;;;;86.95;38.28;;;;;;;2.45;90.75;101689.98;1645052;85;21199;-65
2021/03/03 04:39:59;;;;;;;83.13;38.00;;;;;;;2.54;90.53;101685.30;1644164;85;21231;-65
2021/03/03 04:42:25;;;;;;;104.30;44.85;;;;;;;2.58;90.22;101689.45;1645861;85;27813;-65
2021/03/03 04:44:51;;;;;;;97.83;45.20;;;;;;;2.49;90.01;101681.13;1647368;85;28602;-65
2021/03/03 04:47:16;;;;;;;92.47;44.63;;;;;;;2.55;90.04;101679.16;1645437;85;21225;-65
2021/03/03 04:49:42;;;;;;;89.77;43.00;;;;;;;2.60;89.91;101674.61;1645736;85;21549;-66
2021/03/03 04:52:08;;;;;;;85.03;41.00;;;;;;;2.63;89.48;101679.70;1646821;85;21055;-65
2021/03/03 04:54:34;;;;;;;88.12;43.02;;;;;;;2.68;89.21;101681.16;1645002;85;26918;-65
2021/03/03 04:57:03;;;;;;;87.33;39.40;;;;;;;2.66;89.01;101680.86;1645536;85;21318;-64
2021/03/03 04:59:29;;;;;;;83.67;39.03;;;;;;;2.50;88.79;101681.53;1646630;85;21966;-64
2021/03/03 05:01:54;;;;;;;90.27;42.17;;;;;;;2.46;89.18;101681.26;1645876;85;23553;-65
2021/03/03 05:04:20;;;;;;;79.60;43.53;;;;;;;2.47;89.13;101682.09;1646811;84;22808;-65
2021/03/03 05:06:46;;;;;;;90.20;41.10;;;;;;;2.49;88.97;101677.22;1646051;85;26949;-65
2021/03/03 05:09:11;;;;;;;86.43;39.60;;;;;;;2.52;88.88;101676.25;1641198;85;25237;-65
2021/03/03 05:11:37;;;;;;;86.43;41.00;;;;;;;2.58;88.84;101677.72;1643089;85;22298;-65
2021/03/03 05:14:03;;;;;;;92.97;42.77;;;;;;;2.59;88.76;101672.91;1642644;85;23602;-66
2021/03/03 05:16:29;;;;;;;91.30;41.70;;;;;;;2.62;89.00;101670.16;1641834;85;21845;-66
2021/03/03 05:18:55;;;;;;;89.35;42.35;;;;;;;2.58;88.76;101659.03;1644345;85;28344;-66
2021/03/03 05:21:20;;;;;;;101.45;45.15;;;;;;;2.63;88.78;101662.74;1642159;85;26763;-66
2021/03/03 05:26:17;;;;;;;102.40;47.23;;;;;;;2.58;89.16;101667.29;1792547;77;28653;-65
2021/03/03 05:28:46;;;;;;;106.30;46.33;;;;;;;2.45;89.61;101670.89;1796736;78;25543;-65
2021/03/03 05:31:12;;;;;;;97.17;44.38;;;;;;;2.34;90.07;101671.35;1792948;78;22670;-65
2021/03/03 05:33:38;;;;;;;94.27;40.07;;;;;;;2.41;90.34;101666.28;1793811;78;21067;-65
2021/03/03 05:36:06;;;;;;;88.97;43.00;;;;;;;2.44;89.93;101666.58;1756749;78;22312;-65
2021/03/03 05:38:33;;;;;;;85.45;39.03;;;;;;;2.49;89.58;101670.70;1792503;78;21272;-65
2021/03/03 05:40:59;;;;;;;91.17;38.45;;;;;;;2.55;89.39;101673.94;1794997;78;21188;-65
2021/03/03 05:43:24;;;;;;;91.53;43.10;;;;;;;2.51;89.27;101672.77;1795556;78;21352;-65
2021/03/03 05:45:51;;;;;;;86.57;38.73;;;;;;;2.38;89.28;101674.23;1793232;78;21922;-65
2021/03/03 05:48:25;;;;;;;88.55;41.42;;;;;;;2.33;89.25;101676.16;1791593;78;21167;-66
2021/03/03 05:51:03;;;;;;;85.62;37.80;;;;;;;2.38;89.23;101678.14;1801238;78;21212;-65
2021/03/03 05:53:30;;;;;;;91.20;39.85;;;;;;;2.40;89.13;101675.00;1798792;78;21589;-67
2021/03/03 05:55:56;;;;;;;85.65;39.27;;;;;;;2.25;89.24;101671.73;1797137;78;21376;-66
2021/03/03 05:58:26;;;;;;;85.38;36.60;;;;;;;2.33;89.42;101675.73;1794159;78;21132;-67
2021/03/03 06:00:52;;;;;;;89.13;39.42;;;;;;;2.33;89.36;101669.65;1799042;78;21608;-65
2021/03/03 06:03:18;;;;;;;89.45;38.35;;;;;;;2.41;89.26;101667.58;1796732;78;28191;-65
2021/03/03 06:05:47;;;;;;;86.80;39.58;;;;;;;2.46;89.09;101667.38;1793717;78;27109;-65
2021/03/03 06:08:20;;;;;;;87.55;37.83;;;;;;;2.48;88.97;101671.59;1795100;78;21236;-65
2021/03/03 06:10:46;;;;;;;90.87;40.50;;;;;;;2.50;88.59;101671.53;1794704;78;21225;-64
2021/03/03 06:13:12;;;;;;;91.70;39.27;;;;;;;2.38;88.84;101672.92;1793766;78;21226;-65
2021/03/03 06:15:39;;;;;;;95.92;42.48;;;;;;;2.21;89.21;101659.77;1794781;78;27588;-65
2021/03/03 06:18:07;;;;;;;94.17;37.83;;;;;;;2.17;89.65;101663.41;1791854;78;21896;-64
2021/03/03 06:20:37;;;;;;;94.83;40.78;;;;;;;2.17;89.69;101663.41;1794367;78;21534;-66
2021/03/03 06:23:23;;;;;;;94.25;39.53;;;;;;;2.14;89.51;101660.47;1795864;78;21250;-65
2021/03/03 06:25:57;;;;;;;87.22;37.23;;;;;;;1.95;89.91;101653.87;1785921;78;21181;-66
2021/03/03 06:28:44;;;;;;;89.85;38.55;;;;;;;2.05;90.21;101651.30;1788871;78;21160;-66
2021/03/03 06:31:30;;;;;;;89.40;38.55;;;;;;;2.14;90.13;101653.52;1787901;78;21172;-65
2021/03/03 06:34:23;;;;;;;83.12;35.03;;;;;;;2.18;89.96;101658.13;1786405;78;21201;-67
2021/03/03 06:37:00;;;;;;;87.15;36.28;;;;;;;2.21;89.80;101664.52;1786111;78;21192;-68
2021/03/03 06:39:32;;;;;;;90.73;34.73;;;;;;;2.22;89.46;101665.36;1783574;78;21120;-68
2021/03/03 06:42:01;;;;;;;93.27;38.98;;;;;;;2.18;89.58;101660.73;1786718;78;21276;-69
2021/03/03 06:44:49;;;;;;;94.87;39.83;;;;;;;2.01;89.70;101661.44;1789004;78;21116;-67
2021/03/03 06:47:15;;;;;;;79.22;34.75;;;;;;;1.61;91.34;101663.05;1786962;78;21646;-69
2021/03/03 06:49:41;;;;;;;107.40;41.48;;;;;;;1.64;91.76;101666.00;1787882;78;21211;-67
2021/03/03 06:52:07;;;;;;;100.53;40.40;;;;;;;1.26;93.28;101658.78;1785444;78;20954;-67
2021/03/03 06:54:33;;;;;;;94.15;37.53;;;;;;;1.30;93.67;101653.83;1786120;78;21199;-67
2021/03/03 06:56:59;;;;;;;91.63;38.63;;;;;;;1.43;94.01;101642.52;1784888;78;25225;-67
2021/03/03 06:59:32;;;;;;;103.07;40.65;;;;;;;1.54;93.60;101642.06;1759254;79;22734;-67
2021/03/03 07:02:08;;;;;;;87.15;36.50;;;;;;;1.61;93.00;101634.41;1785498;78;21274;-67
2021/03/03 07:04:37;;;;;;;92.62;37.95;;;;;;;1.73;92.56;101636.52;1783985;78;21233;-67
2021/03/03 07:07:18;;;;;;;83.75;34.20;;;;;;;1.83;92.08;101633.54;1787456;78;21248;-68
2021/03/03 07:09:58;;;;;;;90.70;36.63;;;;;;;1.90;91.51;101629.78;1767091;79;21221;-68
2021/03/03 07:12:29;;;;;;;84.25;35.35;;;;;;;2.00;91.06;101625.86;1793782;78;21142;-68
2021/03/03 07:15:07;;;;;;;90.20;37.78;;;;;;;2.08;90.71;101622.94;1787486;78;21147;-67
2021/03/03 07:17:38;;;;;;;109.07;41.35;;;;;;;2.15;90.61;101625.22;1788070;78;21188;-68
2021/03/03 07:20:10;;;;;;;88.78;36.25;;;;;;;2.15;90.26;101620.00;1786929;78;21534;-67
2021/03/03 07:22:41;;;;;;;93.80;38.90;;;;;;;2.14;90.46;101626.16;1788173;78;21249;-67
2021/03/03 07:25:10;;;;;;;97.62;39.92;;;;;;;1.99;90.20;101617.67;1781403;78;21239;-68
2021/03/03 07:27:37;;;;;;;94.58;40.67;;;;;;;2.03;90.59;101627.50;1782088;78;21172;-68
2021/03/03 07:30:08;;;;;;;90.25;34.70;;;;;;;1.86;90.66;101628.20;1778810;78;21169;-68
2021/03/03 07:32:34;;;;;;;89.95;39.08;;;;;;;1.88;90.79;101621.16;1775656;78;21586;-68
2021/03/03 07:34:59;;;;;;;95.70;40.15;;;;;;;1.83;90.84;101621.35;1771508;78;21187;-67
2021/03/03 07:37:35;;;;;;;92.57;38.98;;;;;;;1.90;90.87;101621.97;1773682;78;21353;-67
2021/03/03 07:40:06;;;;;;;84.62;35.83;;;;;;;1.93;90.91;101629.66;1777744;78;21245;-66
2021/03/03 07:42:32;;;;;;;86.05;35.75;;;;;;;2.05;90.46;101624.37;1765375;78;21154;-67
2021/03/03 07:45:00;;;;;;;89.07;35.93;;;;;;;2.07;90.06;101627.31;1731194;80;25865;-67
2021/03/03 07:47:31;;;;;;;83.70;35.03;;;;;;;2.09;89.84;101630.69;1717588;81;21140;-66
2021/03/03 07:50:15;;;;;;;92.60;38.35;;;;;;;2.18;89.58;101623.41;1721316;81;21331;-67
2021/03/03 07:52:52;;;;;;;93.97;38.40;;;;;;;2.10;89.27;101621.97;1735666;80;21247;-68
2021/03/03 07:55:18;;;;;;;96.25;37.98;;;;;;;2.07;89.99;101627.31;1725774;81;21212;-68
2021/03/03 07:57:46;;;;;;;86.93;37.33;;;;;;;2.07;90.12;101628.61;1715165;81;26911;-67
2021/03/03 08:00:15;;;;;;;94.17;39.20;;;;;;;2.10;90.10;101620.67;1722037;81;21217;-68
2021/03/03 08:02:49;;;;;;;91.37;37.15;;;;;;;2.16;90.10;101624.78;1741680;81;21776;-68
2021/03/03 08:05:34;;;;;;;93.03;38.92;;;;;;;2.20;89.87;101630.23;1734552;81;21298;-67
2021/03/03 08:08:26;;;;;;;95.65;39.80;;;;;;;2.29;89.82;101625.93;1735715;81;21204;-67
2021/03/03 08:11:05;;;;;;;103.72;41.05;;;;;;;2.34;89.61;101624.43;1726560;81;21726;-68
2021/03/03 08:13:35;;;;;;;98.55;40.88;;;;;;;2.25;89.55;101622.22;1733800;81;21262;-68
2021/03/03 08:16:07;;;;;;;101.33;41.35;;;;;;;2.21;89.98;101621.98;1728289;81;21188;-69
2021/03/03 08:18:36;;;;;;;104.47;42.17;;;;;;;2.30;90.19;101618.95;1726957;81;21586;-69
2021/03/03 08:21:16;;;;;;;100.78;41.65;;;;;;;2.30;90.03;101621.55;1742412;81;21184;-70
2021/03/03 08:23:57;;;;;;;98.62;41.10;;;;;;;2.31;90.21;101617.58;1720395;81;21249;-69
2021/03/03 08:26:29;;;;;;;85.47;37.53;;;;;;;2.40;89.98;101613.73;1736534;81;21185;-68
2021/03/03 08:29:13;;;;;;;84.65;37.13;;;;;;;2.44;89.25;101610.53;1729029;81;21606;-68
2021/03/03 08:31:40;;;;;;;76.47;33.35;;;;;;;2.39;89.32;101609.42;1726525;81;21253;-69
2021/03/03 08:34:09;;;;;;;84.07;34.60;;;;;;;2.29;88.99;101601.64;1732657;81;21630;-69
2021/03/03 08:36:41;;;;;;;81.37;38.90;;;;;;;2.36;89.32;101596.52;1734195;81;21462;-68
2021/03/03 08:39:13;;;;;;;91.95;39.33;;;;;;;2.48;89.39;101592.08;1730263;81;21184;-69
2021/03/03 08:41:39;;;;;;;93.17;39.50;;;;;;;2.61;88.98;101588.92;1727843;81;21241;-68
2021/03/03 08:44:16;;;;;;;90.53;39.13;;;;;;;2.73;88.82;101584.45;1730431;81;21204;-69
2021/03/03 08:46:47;;;;;;;89.75;35.52;;;;;;;2.77;88.66;101584.70;1730814;81;21224;-67
2021/03/03 08:49:18;;;;;;;88.35;44.67;;;;;;;2.88;88.26;101578.53;1733443;81;21621;-69
2021/03/03 08:51:48;;;;;;;92.72;39.08;;;;;;;2.96;88.04;101577.34;1730674;81;21217;-69
2021/03/03 08:54:19;;;;;;;92.33;40.30;;;;;;;3.02;87.58;101576.58;1735492;81;21258;-68
2021/03/03 08:56:54;;;;;;;92.42;41.33;;;;;;;3.12;87.44;101580.06;1729512;81;21661;-72
2021/03/03 08:59:41;;;;;;;85.70;38.08;;;;;;;3.17;87.09;101582.86;1730436;81;22473;-69
2021/03/03 09:02:18;;;;;;;88.72;35.40;;;;;;;3.22;86.97;101581.33;1728691;81;21195;-68
2021/03/03 09:04:54;;;;;;;83.17;40.63;;;;;;;3.13;86.76;101577.38;1726372;81;21596;-68
2021/03/03 09:07:22;;;;;;;89.35;38.98;;;;;;;3.14;87.24;101579.09;1728723;81;21964;-69
2021/03/03 09:10:05;;;;;;;84.80;41.90;;;;;;;3.26;87.02;101574.19;1729934;81;21228;-69
2021/03/03 09:12:40;;;;;;;87.33;38.53;;;;;;;3.19;86.90;101566.66;1728596;81;21298;-69
2021/03/03 09:15:09;;;;;;;86.28;40.08;;;;;;;3.17;87.04;101569.80;1728843;81;22321;-69
2021/03/03 09:17:35;;;;;;;87.12;42.98;;;;;;;3.23;86.97;101565.59;1726297;81;21209;-70
2021/03/03 09:20:11;;;;;;;92.25;38.58;;;;;;;3.14;87.13;101563.42;1735555;81;21201;-71
2021/03/03 09:22:42;;;;;;;93.58;40.28;;;;;;;3.23;87.16;101556.89;1731103;81;21455;-69
2021/03/03 09:25:19;;;;;;;82.80;41.37;;;;;;;3.23;87.17;101556.46;1733344;81;21529;-70
2021/03/03 09:27:55;;;;;;;85.50;38.63;;;;;;;3.26;86.91;101542.86;1733085;81;21216;-71
2021/03/03 09:30:26;;;;;;;84.22;38.05;;;;;;;3.31;86.82;101543.47;1733824;81;21277;-67
2021/03/03 09:35:33;;;;;;;76.87;39.73;;;;;;;3.23;86.84;101531.66;1830381;77;28526;-67
2021/03/03 09:38:00;;;;;;;82.12;42.80;;;;;;;3.23;87.43;101531.66;1751146;79;27854;-68
2021/03/03 09:40:28;;;;;;;88.47;38.15;;;;;;;3.33;87.25;101533.83;1788360;78;21220;-69
2021/03/03 09:42:54;;;;;;;74.50;40.78;;;;;;;3.46;87.13;101532.28;1790475;78;21501;-69
2021/03/03 09:45:21;;;;;;;79.17;41.93;;;;;;;3.55;86.91;101532.30;1784633;78;22777;-69
2021/03/03 09:47:47;;;;;;;87.05;38.25;;;;;;;3.62;86.49;101527.59;1787607;78;25193;-69
2021/03/03 09:50:25;;;;;;;80.17;41.42;;;;;;;3.68;86.32;101525.98;1787385;78;26721;-68
2021/03/03 09:52:58;;;;;;;83.40;40.58;;;;;;;3.57;86.08;101527.39;1786671;78;21695;-69
2021/03/03 09:55:29;;;;;;;77.47;41.63;;;;;;;3.69;86.09;101524.59;1788140;78;21097;-68
2021/03/03 09:57:56;;;;;;;80.45;43.02;;;;;;;3.56;86.02;101521.77;1791419;78;21002;-68
2021/03/03 10:00:24;;;;;;;84.42;37.20;;;;;;;3.61;86.44;101519.40;1787622;78;21492;-68
2021/03/03 10:02:55;;;;;;;82.17;43.58;;;;;;;3.59;86.71;101520.31;1789146;78;21248;-68
2021/03/03 10:05:23;;;;;;;84.15;39.15;;;;;;;3.63;86.65;101520.98;1786099;78;22015;-68
2021/03/03 10:07:56;;;;;;;75.80;41.05;;;;;;;3.80;86.54;101516.69;1788346;78;21762;-67
2021/03/03 10:10:23;;;;;;;74.95;40.15;;;;;;;3.89;86.24;101505.30;1781216;78;21215;-67
2021/03/03 10:12:49;;;;;;;84.62;37.83;;;;;;;3.92;85.84;101506.44;1793045;78;21140;-66
2021/03/03 10:15:21;;;;;;;81.35;42.30;;;;;;;3.98;85.73;101504.42;1787102;78;21179;-65
2021/03/03 10:17:54;;;;;;;74.60;40.75;;;;;;;3.88;85.72;101503.59;1781702;78;21215;-68
2021/03/03 10:20:48;;;;;;;70.28;39.27;;;;;;;3.91;85.84;101505.21;1788146;78;21224;-67
2021/03/03 10:23:20;;;;;;;71.50;39.88;;;;;;;3.98;85.55;101507.03;1785974;78;21194;-67
2021/03/03 10:25:54;;;;;;;79.95;42.65;;;;;;;4.04;85.15;101501.48;1787846;78;21609;-68
2021/03/03 10:28:25;;;;;;;75.87;41.98;;;;;;;4.12;85.44;101499.34;1789546;78;21251;-68
2021/03/03 10:30:53;;;;;;;71.17;39.23;;;;;;;4.20;85.37;101490.62;1789046;78;22409;-67
2021/03/03 10:33:33;;;;;;;76.37;41.05;;;;;;;4.10;84.55;101490.71;1788260;78;21221;-67
2021/03/03 10:36:01;;;;;;;77.42;41.20;;;;;;;4.16;84.83;101484.33;1789279;78;21213;-67
2021/03/03 10:38:27;;;;;;;74.95;41.98;;;;;;;4.19;84.99;101487.61;1787462;78;21589;-69
2021/03/03 10:40:56;;;;;;;69.50;39.48;;;;;;;4.29;84.86;101474.91;1788433;78;21486;-68
2021/03/03 10:43:23;;;;;;;72.50;40.05;;;;;;;4.30;84.60;101481.36;1790724;78;21716;-65
2021/03/03 10:46:11;;;;;;;74.32;41.40;;;;;;;4.26;84.56;101479.00;1786192;78;21209;-66
2021/03/03 10:48:36;;;;;;;;;;;;;;;4.14;84.75;101476.56;1793513;78;21195;-66
2021/03/03 10:51:02;;;;;;;70.45;40.63;;;;;;;4.08;85.21;101467.73;1786437;78;20687;-68
2021/03/03 10:53:53;;;;;;;77.90;40.40;;;;;;;4.18;85.33;101470.25;1786791;78;26746;-67
2021/03/03 10:56:35;;;;;;;74.92;41.53;;;;;;;4.25;85.31;101468.14;1785078;78;22044;-69
2021/03/03 10:59:26;;;;;;;75.87;41.42;;;;;;;4.27;85.31;101453.20;1787365;78;21811;-67
2021/03/03 11:01:57;;;;;;;75.90;41.15;;;;;;;4.37;85.25;101450.95;1790400;78;21223;-67
2021/03/03 11:04:20;;;;;;;75.92;42.10;;;;;;;4.41;84.86;101449.84;1787880;78;21196;-68
2021/03/03 11:06:46;;;;;;;77.67;43.87;;;;;;;4.42;84.90;101448.92;1778085;78;27334;-68
2021/03/03 11:09:16;;;;;;;77.15;42.15;;;;;;;4.54;84.78;101443.02;1792667;78;21555;-67
2021/03/03 11:11:51;;;;;;;73.12;40.43;;;;;;;4.68;84.86;101430.00;1789479;78;21148;-67
2021/03/03 11:14:17;;;;;;;68.83;39.80;;;;;;;4.73;83.89;101433.67;1785221;78;21241;-67
2021/03/03 11:16:52;;;;;;;75.60;43.20;;;;;;;4.65;84.02;101428.86;1791067;78;21698;-67
2021/03/03 11:19:19;;;;;;;68.62;38.78;;;;;;;4.76;84.01;101420.88;1785788;78;21228;-68
2021/03/03 11:21:53;;;;;;;74.58;40.80;;;;;;;4.80;83.40;101427.61;1784609;78;21208;-67
2021/03/03 11:24:20;;;;;;;78.75;42.10;;;;;;;4.68;84.05;101416.92;1785031;78;21922;-67
2021/03/03 11:26:46;;;;;;;78.53;42.63;;;;;;;4.87;83.88;101412.42;1787282;78;21220;-69
2021/03/03 11:29:12;;;;;;;71.60;42.10;;;;;;;4.85;83.14;101409.42;1787490;78;28484;-67